sensor_id;sensor_type;location;lat;lon;timestamp;pressure;altitude;pressure_sealevel;temperature;humidity
46638;BME280;32365;46.938;7.390;2023-02-04T07:30:52;96737.94;;;3.66;83.63
46638;BME280;32365;46.938;7.390;2023-02-04T07:33:19;96747.03;;;3.60;83.75
46638;BME280;32365;46.938;7.390;2023-02-04T07:35:45;96748.44;;;3.54;84.09
46638;BME280;32365;46.938;7.390;2023-02-04T07:38:12;96747.91;;;3.69;83.55
46638;BME280;32365;46.938;7.390;2023-02-04T07:40:38;96750.16;;;3.72;83.90
46638;BME280;32365;46.938;7.390;2023-02-04T07:43:05;96757.84;;;3.72;82.99
46638;BME280;32365;46.938;7.390;2023-02-04T07:45:31;96755.78;;;3.76;83.61
46638;BME280;32365;46.938;7.390;2023-02-04T07:47:59;96762.31;;;3.70;82.88
46638;BME280;32365;46.938;7.390;2023-02-04T07:50:26;96772.25;;;3.55;84.02
46638;BME280;32365;46.938;7.390;2023-02-04T07:52:52;96782.22;;;3.58;84.33
46638;BME280;32365;46.938;7.390;2023-02-04T07:55:19;96778.19;;;3.74;84.23
46638;BME280;32365;46.938;7.390;2023-02-04T07:57:45;96780.00;;;3.81;84.33
46638;BME280;32365;46.938;7.390;2023-02-04T08:00:13;96776.72;;;3.71;83.54
46638;BME280;32365;46.938;7.390;2023-02-04T08:02:40;96782.94;;;4.21;82.51
46638;BME280;32365;46.938;7.390;2023-02-04T08:05:09;96784.25;;;4.25;81.64
46638;BME280;32365;46.938;7.390;2023-02-04T08:07:35;96781.69;;;4.25;82.16
46638;BME280;32365;46.938;7.390;2023-02-04T08:10:02;96782.91;;;4.13;82.05
46638;BME280;32365;46.938;7.390;2023-02-04T08:12:29;96788.09;;;4.29;81.49
46638;BME280;32365;46.938;7.390;2023-02-04T08:14:55;96784.66;;;4.12;81.43
46638;BME280;32365;46.938;7.390;2023-02-04T08:17:22;96782.72;;;4.06;82.03
46638;BME280;32365;46.938;7.390;2023-02-04T08:19:48;96787.72;;;4.16;81.46
46638;BME280;32365;46.938;7.390;2023-02-04T08:22:16;96787.81;;;4.32;81.69
46638;BME280;32365;46.938;7.390;2023-02-04T08:24:43;96791.16;;;4.33;82.09
46638;BME280;32365;46.938;7.390;2023-02-04T08:27:09;96798.72;;;4.35;81.90
46638;BME280;32365;46.938;7.390;2023-02-04T08:29:36;96800.47;;;4.34;82.05
46638;BME280;32365;46.938;7.390;2023-02-04T08:32:03;96806.19;;;4.20;83.89
46638;BME280;32365;46.938;7.390;2023-02-04T08:34:30;96804.38;;;4.12;83.11
46638;BME280;32365;46.938;7.390;2023-02-04T08:36:56;96807.22;;;4.09;82.64
46638;BME280;32365;46.938;7.390;2023-02-04T08:39:24;96813.09;;;4.27;82.82
46638;BME280;32365;46.938;7.390;2023-02-04T08:41:50;96804.16;;;4.31;82.95
46638;BME280;32365;46.938;7.390;2023-02-04T08:44:17;96804.31;;;4.30;82.79
46638;BME280;32365;46.938;7.390;2023-02-04T08:46:44;96815.31;;;4.22;82.98
46638;BME280;32365;46.938;7.390;2023-02-04T08:49:11;96812.94;;;4.29;82.91
46638;BME280;32365;46.938;7.390;2023-02-04T08:51:37;96810.53;;;4.27;82.42
46638;BME280;32365;46.938;7.390;2023-02-04T08:54:04;96807.84;;;4.37;81.59
46638;BME280;32365;46.938;7.390;2023-02-04T08:56:32;96799.78;;;4.58;80.82
46638;BME280;32365;46.938;7.390;2023-02-04T08:58:59;96804.75;;;4.60;80.01
46638;BME280;32365;46.938;7.390;2023-02-04T09:01:26;96798.81;;;5.11;77.41
46638;BME280;32365;46.938;7.390;2023-02-04T09:03:53;96789.97;;;5.13;76.77
46638;BME280;32365;46.938;7.390;2023-02-04T09:06:20;96801.38;;;5.02;78.59
46638;BME280;32365;46.938;7.390;2023-02-04T09:08:46;96812.44;;;5.03;78.83
46638;BME280;32365;46.938;7.390;2023-02-04T09:11:13;96818.69;;;5.00;80.21
46638;BME280;32365;46.938;7.390;2023-02-04T09:13:41;96821.31;;;5.17;78.49
46638;BME280;32365;46.938;7.390;2023-02-04T09:16:07;96823.34;;;5.13;78.21
46638;BME280;32365;46.938;7.390;2023-02-04T09:18:35;96821.66;;;4.79;78.82
46638;BME280;32365;46.938;7.390;2023-02-04T09:21:01;96816.22;;;4.82;79.44
46638;BME280;32365;46.938;7.390;2023-02-04T09:23:28;96814.97;;;4.95;78.69
46638;BME280;32365;46.938;7.390;2023-02-04T09:25:54;96820.78;;;5.13;78.36
46638;BME280;32365;46.938;7.390;2023-02-04T09:28:21;96809.59;;;5.31;77.12
46638;BME280;32365;46.938;7.390;2023-02-04T09:30:49;96827.25;;;5.34;76.72
46638;BME280;32365;46.938;7.390;2023-02-04T09:33:15;96831.28;;;5.28;78.51
46638;BME280;32365;46.938;7.390;2023-02-04T09:35:42;96833.66;;;5.30;78.19
46638;BME280;32365;46.938;7.390;2023-02-04T09:38:09;96838.81;;;5.38;78.46
46638;BME280;32365;46.938;7.390;2023-02-04T09:40:41;96835.09;;;5.32;78.62
46638;BME280;32365;46.938;7.390;2023-02-04T09:43:12;96838.97;;;5.45;77.96
46638;BME280;32365;46.938;7.390;2023-02-04T09:45:41;96841.53;;;5.36;78.46
46638;BME280;32365;46.938;7.390;2023-02-04T09:48:12;96837.50;;;5.26;77.88
46638;BME280;32365;46.938;7.390;2023-02-04T09:50:39;96838.50;;;5.33;78.42
46638;BME280;32365;46.938;7.390;2023-02-04T09:53:11;96841.19;;;5.15;78.18
46638;BME280;32365;46.938;7.390;2023-02-04T09:55:40;96837.66;;;5.16;78.88
46638;BME280;32365;46.938;7.390;2023-02-04T09:58:13;96842.63;;;5.26;78.72
46638;BME280;32365;46.938;7.390;2023-02-04T10:00:41;96848.59;;;5.26;78.89
46638;BME280;32365;46.938;7.390;2023-02-04T10:03:14;96844.25;;;5.18;79.10
46638;BME280;32365;46.938;7.390;2023-02-04T10:05:42;96843.41;;;5.09;79.95
46638;BME280;32365;46.938;7.390;2023-02-04T10:08:12;96844.72;;;5.22;80.32
46638;BME280;32365;46.938;7.390;2023-02-04T10:10:39;96844.91;;;5.37;79.04
46638;BME280;32365;46.938;7.390;2023-02-04T10:13:13;96856.31;;;5.43;78.33
46638;BME280;32365;46.938;7.390;2023-02-04T10:15:41;96853.41;;;5.29;79.39
46638;BME280;32365;46.938;7.390;2023-02-04T10:18:12;96850.03;;;5.20;79.78
46638;BME280;32365;46.938;7.390;2023-02-04T10:20:43;96849.84;;;5.22;80.56
46638;BME280;32365;46.938;7.390;2023-02-04T10:23:10;96852.91;;;5.26;80.63
46638;BME280;32365;46.938;7.390;2023-02-04T10:25:37;96854.22;;;5.38;80.26
46638;BME280;32365;46.938;7.390;2023-02-04T10:28:03;96852.81;;;5.60;77.51
46638;BME280;32365;46.938;7.390;2023-02-04T10:30:36;96845.09;;;5.93;77.47
46638;BME280;32365;46.938;7.390;2023-02-04T10:33:13;96843.84;;;5.89;76.04
46638;BME280;32365;46.938;7.390;2023-02-04T10:35:45;96842.38;;;5.95;77.19
46638;BME280;32365;46.938;7.390;2023-02-04T10:38:11;96850.41;;;6.25;76.44
46638;BME280;32365;46.938;7.390;2023-02-04T10:40:38;96832.72;;;6.30;74.96
46638;BME280;32365;46.938;7.390;2023-02-04T10:43:09;96843.16;;;6.37;74.25
46638;BME280;32365;46.938;7.390;2023-02-04T10:45:36;96840.34;;;6.63;74.48
46638;BME280;32365;46.938;7.390;2023-02-04T10:48:03;96838.56;;;6.63;74.38
46638;BME280;32365;46.938;7.390;2023-02-04T10:50:31;96841.16;;;7.03;74.25
46638;BME280;32365;46.938;7.390;2023-02-04T10:52:59;96848.53;;;7.06;73.00
46638;BME280;32365;46.938;7.390;2023-02-04T10:55:39;96838.25;;;6.98;72.27
46638;BME280;32365;46.938;7.390;2023-02-04T10:58:08;96843.72;;;7.03;72.61
46638;BME280;32365;46.938;7.390;2023-02-04T11:00:36;96839.31;;;7.12;72.40
46638;BME280;32365;46.938;7.390;2023-02-04T11:03:06;96837.03;;;6.86;73.79
46638;BME280;32365;46.938;7.390;2023-02-04T11:05:37;96830.09;;;6.86;73.59
46638;BME280;32365;46.938;7.390;2023-02-04T11:08:20;96836.59;;;7.05;73.05
46638;BME280;32365;46.938;7.390;2023-02-04T11:10:49;96834.91;;;6.89;74.12
46638;BME280;32365;46.938;7.390;2023-02-04T11:13:22;96838.16;;;6.35;75.51
46638;BME280;32365;46.938;7.390;2023-02-04T11:15:54;96829.91;;;6.56;75.77
46638;BME280;32365;46.938;7.390;2023-02-04T11:18:43;96831.94;;;6.77;74.61
46638;BME280;32365;46.938;7.390;2023-02-04T11:21:20;96826.44;;;6.81;73.74
46638;BME280;32365;46.938;7.390;2023-02-04T11:23:47;96829.97;;;7.19;74.29
46638;BME280;32365;46.938;7.390;2023-02-04T11:26:16;96814.88;;;7.39;71.54
46638;BME280;32365;46.938;7.390;2023-02-04T11:29:08;96812.16;;;7.56;70.68
46638;BME280;32365;46.938;7.390;2023-02-04T11:31:42;96811.44;;;7.85;70.83
46638;BME280;32365;46.938;7.390;2023-02-04T11:34:23;96810.47;;;8.01;69.74
46638;BME280;32365;46.938;7.390;2023-02-04T11:37:12;96811.94;;;8.19;70.44
46638;BME280;32365;46.938;7.390;2023-02-04T11:39:40;96814.22;;;8.14;68.65
46638;BME280;32365;46.938;7.390;2023-02-04T11:42:16;96809.19;;;8.36;68.95
46638;BME280;32365;46.938;7.390;2023-02-04T11:44:48;96819.53;;;8.51;68.19
46638;BME280;32365;46.938;7.390;2023-02-04T11:47:15;96815.50;;;8.33;68.30
46638;BME280;32365;46.938;7.390;2023-02-04T11:49:42;96813.81;;;8.70;68.29
46638;BME280;32365;46.938;7.390;2023-02-04T11:52:13;96814.09;;;8.75;67.22
46638;BME280;32365;46.938;7.390;2023-02-04T11:54:39;96809.19;;;8.81;66.91
46638;BME280;32365;46.938;7.390;2023-02-04T11:57:08;96809.84;;;8.53;67.14
46638;BME280;32365;46.938;7.390;2023-02-04T11:59:36;96808.78;;;8.99;68.45
46638;BME280;32365;46.938;7.390;2023-02-04T12:02:04;96819.16;;;9.20;65.99
46638;BME280;32365;46.938;7.390;2023-02-04T12:04:30;96818.13;;;9.00;66.27
46638;BME280;32365;46.938;7.390;2023-02-04T12:06:59;96811.94;;;8.79;69.18
46638;BME280;32365;46.938;7.390;2023-02-04T12:09:28;96817.47;;;8.76;68.19
46638;BME280;32365;46.938;7.390;2023-02-04T12:17:14;96817.00;;;8.12;71.17
46638;BME280;32365;46.938;7.390;2023-02-04T12:19:41;96821.53;;;8.10;70.41
46638;BME280;32365;46.938;7.390;2023-02-04T12:22:07;96817.13;;;8.49;69.06
